Time;durP1;ratioP1;P1;durP2;ratioP2;P2;SDS_P1;SDS_P2;PMS_P1;PMS_P2;Temp;Humidity;BMP_temperature;BMP_pressure;BME280_temperature;BME280_humidity;BME280_pressure;Samples;Min_cycle;Max_cycle;Signal;HPM_P1;HPM_P2
2022/12/02 00:01:21;;;;;;;49.45;30.95;;;9.80;95.00;;;;;;5052656;28;20021;-72
2022/12/02 00:03:47;;;;;;;50.42;32.13;;;9.80;94.90;;;;;;5052752;28;20029;-72
2022/12/02 00:06:27;;;;;;;47.10;31.40;;;9.80;94.90;;;;;;5052447;28;20013;-74
2022/12/02 00:08:58;;;;;;;46.17;30.65;;;9.70;94.90;;;;;;5052524;28;20040;-72
2022/12/02 00:11:29;;;;;;;44.05;31.00;;;9.70;95.20;;;;;;5056024;28;20417;-72
2022/12/02 00:13:58;;;;;;;49.60;33.03;;;9.70;95.20;;;;;;5057062;28;20087;-72
2022/12/02 00:16:25;;;;;;;46.30;31.20;;;9.70;95.20;;;;;;5056883;28;20052;-72
2022/12/02 00:18:51;;;;;;;46.60;31.30;;;9.70;95.10;;;;;;5056647;28;20104;-72
2022/12/02 00:21:17;;;;;;;49.50;29.98;;;9.70;95.10;;;;;;5056847;28;20037;-72
2022/12/02 00:23:43;;;;;;;47.50;31.48;;;9.70;95.10;;;;;;5056644;28;20377;-72
2022/12/02 00:26:09;;;;;;;46.40;30.92;;;9.70;95.10;;;;;;5056442;28;20075;-73
2022/12/02 00:28:34;;;;;;;47.10;30.77;;;9.70;95.20;;;;;;5056646;28;20041;-72
2022/12/02 00:31:00;;;;;;;43.65;30.27;;;9.70;95.10;;;;;;5056511;28;20104;-72
2022/12/02 00:33:26;;;;;;;42.88;30.65;;;9.70;94.90;;;;;;5056479;28;20056;-72
2022/12/02 00:35:51;;;;;;;44.35;31.73;;;9.70;95.00;;;;;;5056446;28;20025;-75
2022/12/02 00:38:17;;;;;;;45.95;30.08;;;9.70;94.90;;;;;;5056073;28;20016;-74
2022/12/02 00:40:42;;;;;;;44.50;29.17;;;9.70;94.90;;;;;;5056271;28;20530;-73
2022/12/02 00:48:36;;;;;;;45.03;29.65;;;9.60;95.00;;;;;;5056237;28;20031;-74
2022/12/02 00:51:02;;;;;;;40.45;28.20;;;9.60;95.10;;;;;;5056083;28;20037;-73
2022/12/02 00:53:28;;;;;;;42.47;30.55;;;9.50;95.10;;;;;;5055834;28;20024;-74
2022/12/02 00:55:53;;;;;;;43.90;28.95;;;9.60;95.20;;;;;;5056071;28;20029;-75
2022/12/02 00:58:19;;;;;;;44.45;29.65;;;9.50;95.30;;;;;;5056132;28;20060;-73
2022/12/02 01:00:45;;;;;;;48.33;29.83;;;9.60;95.20;;;;;;5055887;28;20104;-75
2022/12/02 01:03:11;;;;;;;41.75;28.55;;;9.60;95.20;;;;;;5055839;28;20029;-72
2022/12/02 01:05:36;;;;;;;42.58;29.15;;;9.60;95.00;;;;;;5056087;28;20025;-72
2022/12/02 01:08:02;;;;;;;41.80;28.90;;;9.60;94.90;;;;;;5055375;28;20025;-74
2022/12/02 01:10:27;;;;;;;43.30;29.05;;;9.60;95.00;;;;;;5056218;28;20040;-75
2022/12/02 01:12:53;;;;;;;43.40;29.15;;;9.60;94.90;;;;;;5055877;28;20462;-74
2022/12/02 01:15:18;;;;;;;42.65;29.25;;;9.50;95.00;;;;;;5055892;28;20076;-72
2022/12/02 01:17:44;;;;;;;42.95;27.80;;;9.60;95.00;;;;;;5056288;28;20024;-72
2022/12/02 01:20:10;;;;;;;45.85;27.75;;;9.50;95.00;;;;;;5056311;28;20025;-72
2022/12/02 01:22:35;;;;;;;42.10;27.77;;;9.50;95.10;;;;;;5055328;28;20032;-72
2022/12/02 01:25:01;;;;;;;39.85;27.67;;;9.60;95.10;;;;;;5055590;28;20017;-73
2022/12/02 01:27:27;;;;;;;39.83;27.77;;;9.50;95.20;;;;;;5055203;28;20040;-72
2022/12/02 01:29:52;;;;;;;42.00;28.33;;;9.50;95.20;;;;;;5055407;28;20559;-73
2022/12/02 01:32:19;;;;;;;43.00;28.98;;;9.50;95.30;;;;;;5055314;28;20032;-73
2022/12/02 01:34:45;;;;;;;46.30;30.15;;;9.50;95.50;;;;;;5055055;28;20021;-72
2022/12/02 01:37:11;;;;;;;42.22;28.45;;;9.50;95.40;;;;;;5055172;28;20028;-73
2022/12/02 01:39:36;;;;;;;38.42;26.67;;;9.50;95.50;;;;;;5055225;28;20032;-72
2022/12/02 01:42:03;;;;;;;44.38;29.80;;;9.40;95.50;;;;;;5055459;28;20032;-74
2022/12/02 01:44:28;;;;;;;42.65;29.67;;;9.50;95.60;;;;;;5055122;28;20418;-73
2022/12/02 01:46:54;;;;;;;41.22;29.27;;;9.50;95.60;;;;;;5054979;28;20462;-72
2022/12/02 01:49:20;;;;;;;43.63;29.85;;;9.50;95.60;;;;;;5054762;28;20082;-74
2022/12/02 01:51:46;;;;;;;41.53;28.65;;;9.50;95.60;;;;;;5055007;28;20029;-73
2022/12/02 01:54:12;;;;;;;41.92;28.42;;;9.50;95.70;;;;;;5054821;28;20544;-72
2022/12/02 01:56:38;;;;;;;42.55;28.58;;;9.60;95.70;;;;;;5055041;28;20025;-73
2022/12/02 01:59:04;;;;;;;47.55;29.85;;;9.50;95.70;;;;;;5054891;28;20470;-72
2022/12/02 02:01:34;;;;;;;43.88;28.88;;;9.50;95.80;;;;;;5054846;28;20033;-72
2022/12/02 02:04:00;;;;;;;46.22;29.70;;;9.50;95.90;;;;;;5054374;28;20029;-74
2022/12/02 02:06:30;;;;;;;45.30;31.05;;;9.50;95.90;;;;;;5054143;28;20033;-72
2022/12/02 02:08:56;;;;;;;46.88;30.63;;;9.50;95.80;;;;;;5054468;28;20033;-72
2022/12/02 02:11:23;;;;;;;45.22;30.02;;;9.60;95.80;;;;;;5054686;28;20029;-72
2022/12/02 02:13:49;;;;;;;46.40;30.23;;;9.50;95.80;;;;;;5056703;28;20029;-72
2022/12/02 02:16:14;;;;;;;44.60;29.80;;;9.50;95.90;;;;;;5063014;28;20096;-73
2022/12/02 02:18:41;;;;;;;41.20;30.10;;;9.60;95.90;;;;;;5053437;28;20032;-73
2022/12/02 02:21:12;;;;;;;44.20;29.75;;;9.60;95.80;;;;;;5054090;28;20553;-72
2022/12/02 02:23:38;;;;;;;43.47;29.38;;;9.60;95.90;;;;;;5054308;28;20025;-72
2022/12/02 02:26:03;;;;;;;48.42;32.13;;;9.60;96.10;;;;;;5054438;28;20021;-73
2022/12/02 02:28:29;;;;;;;44.25;29.52;;;9.60;95.90;;;;;;5053851;28;20036;-73
2022/12/02 02:30:57;;;;;;;47.58;30.30;;;9.60;95.90;;;;;;5054197;28;20541;-72
2022/12/02 02:33:23;;;;;;;46.47;30.58;;;9.60;96.10;;;;;;5053248;28;20110;-73
2022/12/02 02:35:49;;;;;;;45.30;30.45;;;9.60;96.10;;;;;;5054387;28;20017;-72
2022/12/02 02:38:18;;;;;;;43.78;30.30;;;9.60;96.20;;;;;;5052732;28;20048;-72
2022/12/02 02:40:45;;;;;;;45.95;32.17;;;9.50;96.40;;;;;;5054194;28;20430;-72
2022/12/02 02:43:11;;;;;;;46.22;31.20;;;9.50;96.30;;;;;;5054017;28;20104;-71
2022/12/02 02:45:40;;;;;;;45.17;29.77;;;9.60;96.40;;;;;;5054015;28;20100;-74
2022/12/02 02:48:07;;;;;;;49.42;31.00;;;9.50;96.50;;;;;;5053519;28;20025;-73
2022/12/02 02:50:35;;;;;;;50.63;32.38;;;9.60;96.50;;;;;;5052729;28;20024;-75
2022/12/02 02:53:01;;;;;;;50.47;31.27;;;9.60;96.60;;;;;;5053882;28;20017;-75
2022/12/02 02:55:27;;;;;;;48.95;31.30;;;9.50;96.60;;;;;;5053565;28;20033;-76
2022/12/02 02:57:53;;;;;;;48.13;32.50;;;9.60;96.50;;;;;;5054001;28;20021;-73
2022/12/02 03:00:20;;;;;;;43.13;30.95;;;9.60;96.50;;;;;;5053734;28;20095;-72
2022/12/02 03:02:50;;;;;;;48.25;31.63;;;9.60;96.50;;;;;;5052157;28;20573;-73
2022/12/02 03:05:17;;;;;;;49.50;32.55;;;9.70;96.50;;;;;;5053641;28;20039;-71
2022/12/02 03:07:42;;;;;;;48.95;31.65;;;9.60;96.60;;;;;;5053569;28;20029;-72
2022/12/02 03:10:09;;;;;;;46.90;32.25;;;9.60;96.60;;;;;;5053834;28;20128;-71
2022/12/02 03:12:35;;;;;;;46.65;32.03;;;9.60;96.60;;;;;;5053667;28;20025;-71
2022/12/02 03:15:02;;;;;;;44.50;31.70;;;9.60;96.60;;;;;;5053433;28;20033;-71
2022/12/02 03:17:28;;;;;;;48.60;31.27;;;9.60;96.70;;;;;;5053244;28;20021;-71
2022/12/02 03:19:53;;;;;;;50.45;32.22;;;9.60;96.80;;;;;;5053237;28;20040;-73
2022/12/02 03:22:19;;;;;;;50.33;32.17;;;9.60;96.70;;;;;;5053246;28;20021;-70
2022/12/02 03:24:44;;;;;;;48.65;32.15;;;9.70;96.80;;;;;;5053359;28;20035;-70
2022/12/02 03:27:12;;;;;;;53.50;32.78;;;9.70;96.70;;;;;;5053342;28;20501;-73
2022/12/02 03:29:39;;;;;;;48.78;33.45;;;9.60;96.80;;;;;;5052899;28;20044;-73
2022/12/02 03:32:04;;;;;;;53.45;32.92;;;9.60;96.90;;;;;;5052920;28;20023;-73
2022/12/02 03:34:30;;;;;;;48.80;32.20;;;9.70;96.70;;;;;;5051798;28;20020;-73
2022/12/02 03:36:58;;;;;;;51.05;33.80;;;9.60;96.90;;;;;;5053311;28;20025;-72
2022/12/02 03:39:23;;;;;;;49.00;32.22;;;9.60;96.90;;;;;;5053018;28;20036;-72
2022/12/02 03:41:49;;;;;;;52.80;33.03;;;9.60;96.80;;;;;;5053334;28;20017;-73
2022/12/02 03:44:15;;;;;;;50.88;32.83;;;9.70;96.90;;;;;;5053042;28;20057;-73
2022/12/02 03:46:42;;;;;;;49.80;33.40;;;9.70;96.90;;;;;;5052954;28;20370;-72
2022/12/02 03:49:08;;;;;;;51.63;32.75;;;9.70;96.90;;;;;;5053095;28;20055;-73
2022/12/02 03:51:34;;;;;;;49.53;33.13;;;9.70;97.00;;;;;;5052733;28;20531;-73
2022/12/02 03:54:00;;;;;;;52.53;34.13;;;9.70;97.00;;;;;;5051702;28;20025;-71
2022/12/02 03:56:27;;;;;;;53.97;34.53;;;9.70;97.00;;;;;;5052799;28;20041;-70
2022/12/02 03:58:52;;;;;;;56.58;34.35;;;9.70;97.10;;;;;;5052722;28;20025;-73
2022/12/02 04:01:20;;;;;;;51.95;33.67;;;9.70;97.00;;;;;;5052358;28;20474;-70
2022/12/02 04:03:45;;;;;;;54.97;33.85;;;9.80;97.00;;;;;;5052864;28;20052;-70
2022/12/02 04:06:11;;;;;;;51.60;34.45;;;9.80;97.00;;;;;;5051573;28;20021;-71
2022/12/02 04:08:37;;;;;;;53.05;35.30;;;9.70;97.10;;;;;;5052509;28;20036;-73
2022/12/02 04:11:03;;;;;;;55.67;34.47;;;9.80;97.10;;;;;;5052685;28;20033;-70
2022/12/02 04:13:29;;;;;;;56.95;33.95;;;9.80;96.90;;;;;;5051407;28;20470;-73
2022/12/02 04:15:55;;;;;;;56.25;35.40;;;9.80;97.00;;;;;;5052365;28;20029;-70
2022/12/02 04:18:20;;;;;;;52.20;35.20;;;9.80;97.00;;;;;;5052823;28;20025;-71
2022/12/02 04:20:46;;;;;;;52.28;33.80;;;9.70;97.10;;;;;;5052570;28;20037;-71
2022/12/02 04:23:12;;;;;;;57.75;34.75;;;9.70;97.10;;;;;;5052491;28;20025;-71
2022/12/02 04:25:37;;;;;;;52.83;34.42;;;9.70;97.10;;;;;;5052762;28;20036;-72
2022/12/02 04:28:03;;;;;;;55.00;34.58;;;9.70;97.20;;;;;;5053554;28;20028;-70
2022/12/02 04:30:28;;;;;;;54.13;35.30;;;9.70;97.20;;;;;;5035879;28;20028;-72
2022/12/02 04:32:54;;;;;;;53.03;34.72;;;9.70;97.20;;;;;;5052490;28;20033;-76
2022/12/02 04:35:20;;;;;;;54.83;35.88;;;9.80;97.20;;;;;;5052508;28;20025;-73
2022/12/02 04:37:45;;;;;;;58.80;35.70;;;9.70;97.20;;;;;;5052554;28;20025;-76
2022/12/02 04:40:11;;;;;;;58.85;36.00;;;9.70;97.20;;;;;;5052644;28;20078;-75
2022/12/02 04:42:37;;;;;;;56.30;35.63;;;9.80;97.20;;;;;;5052390;28;20092;-75
2022/12/02 04:45:03;;;;;;;57.28;35.97;;;9.80;97.20;;;;;;5052434;28;20025;-75
2022/12/02 04:47:28;;;;;;;59.47;37.97;;;9.80;97.20;;;;;;5051028;28;20032;-75
2022/12/02 04:49:54;;;;;;;55.67;36.00;;;9.80;97.30;;;;;;5052644;28;20041;-76
2022/12/02 04:52:19;;;;;;;54.67;35.05;;;9.70;97.20;;;;;;5051134;28;20017;-73
2022/12/02 04:54:45;;;;;;;56.35;36.45;;;9.80;97.40;;;;;;5052147;28;20104;-73
2022/12/02 04:57:10;;;;;;;55.58;36.20;;;9.80;97.20;;;;;;5054866;28;20077;-73
2022/12/02 04:59:36;;;;;;;59.60;37.53;;;9.80;97.20;;;;;;5055708;28;20497;-73
2022/12/02 05:02:02;;;;;;;57.13;35.83;;;9.80;97.10;;;;;;5056069;28;20033;-73
2022/12/02 05:04:27;;;;;;;60.67;36.72;;;9.80;97.20;;;;;;5056467;28;20021;-75
2022/12/02 05:06:53;;;;;;;62.42;36.80;;;9.70;97.30;;;;;;5055729;28;20025;-76
2022/12/02 05:09:18;;;;;;;66.38;39.92;;;9.80;97.30;;;;;;5055872;28;20037;-73
2022/12/02 05:11:44;;;;;;;64.80;39.15;;;9.70;97.30;;;;;;5055597;28;20082;-73
2022/12/02 05:14:09;;;;;;;67.38;39.33;;;9.70;97.40;;;;;;5055524;28;20029;-74
2022/12/02 05:16:35;;;;;;;65.75;39.60;;;9.80;97.30;;;;;;5055757;28;20028;-75
2022/12/02 05:19:01;;;;;;;64.47;39.17;;;9.80;97.20;;;;;;5055731;28;20036;-74
2022/12/02 05:21:26;;;;;;;68.68;40.95;;;9.80;97.30;;;;;;5055452;28;20017;-72
2022/12/02 05:23:52;;;;;;;72.72;40.95;;;9.80;97.30;;;;;;5055604;28;20067;-73
2022/12/02 05:26:17;;;;;;;72.50;42.53;;;9.80;97.40;;;;;;5055512;28;20390;-73
2022/12/02 05:28:43;;;;;;;67.28;40.75;;;9.80;97.50;;;;;;5055136;28;20111;-73
2022/12/02 05:31:08;;;;;;;71.03;43.70;;;9.80;97.40;;;;;;5055636;28;20052;-73
2022/12/02 05:33:34;;;;;;;68.72;40.97;;;9.80;97.40;;;;;;5053206;28;20037;-72
2022/12/02 05:35:59;;;;;;;73.10;41.70;;;9.80;97.30;;;;;;5055555;28;20426;-74
2022/12/02 05:38:25;;;;;;;70.38;42.22;;;9.80;97.30;;;;;;5055101;28;20502;-73
2022/12/02 05:40:55;;;;;;;67.43;42.58;;;9.90;97.30;;;;;;5055295;28;20052;-73
2022/12/02 05:43:23;;;;;;;71.65;41.92;;;9.80;97.30;;;;;;5053647;28;20025;-75
2022/12/02 05:45:48;;;;;;;70.20;42.38;;;9.80;97.20;;;;;;5055265;28;20036;-73
2022/12/02 05:48:17;;;;;;;72.38;43.67;;;9.90;97.40;;;;;;5054841;28;20029;-75
2022/12/02 05:50:44;;;;;;;76.43;42.90;;;9.80;97.40;;;;;;5055002;28;20043;-74
2022/12/02 05:53:23;;;;;;;68.50;41.90;;;9.80;97.40;;;;;;5055011;28;20540;-73
2022/12/02 05:55:54;;;;;;;70.72;43.42;;;9.80;97.40;;;;;;5054891;28;20083;-73
2022/12/02 05:58:20;;;;;;;73.38;45.05;;;9.80;97.40;;;;;;5054936;28;20045;-73
2022/12/02 06:00:55;;;;;;;51.83;35.22;;;9.80;97.50;;;;;;5056573;28;20028;-74
2022/12/02 06:03:21;;;;;;;53.78;33.55;;;9.80;97.70;;;;;;5069864;28;20100;-74
2022/12/02 06:05:48;;;;;;;55.20;33.95;;;10.00;97.20;;;;;;5073235;28;20052;-74
2022/12/02 06:08:19;;;;;;;55.05;34.80;;;10.20;96.90;;;;;;5060596;28;20067;-74
2022/12/02 06:11:00;;;;;;;54.35;33.88;;;10.30;96.70;;;;;;5062978;28;20028;-73
2022/12/02 06:13:28;;;;;;;58.35;36.78;;;10.40;96.50;;;;;;5061345;28;20029;-74
2022/12/02 06:15:54;;;;;;;55.15;35.78;;;10.40;96.30;;;;;;5067016;28;20055;-74
2022/12/02 06:18:38;;;;;;;56.90;36.05;;;10.40;96.20;;;;;;5056252;28;20051;-74
2022/12/02 06:21:12;;;;;;;58.35;36.63;;;10.50;96.30;;;;;;5054591;28;20488;-74
2022/12/02 06:23:43;;;;;;;63.70;37.97;;;10.50;96.10;;;;;;5053348;28;20028;-75
2022/12/02 06:26:13;;;;;;;67.18;40.90;;;10.70;96.00;;;;;;5052403;28;20032;-75
2022/12/02 06:28:40;;;;;;;63.75;39.55;;;10.70;95.80;;;;;;5053093;28;20060;-76
2022/12/02 06:31:12;;;;;;;67.70;42.08;;;10.80;95.80;;;;;;5049888;28;20025;-77
2022/12/02 06:33:38;;;;;;;54.65;34.55;;;10.80;95.80;;;;;;5047719;28;20033;-75
2022/12/02 06:36:11;;;;;;;64.45;38.65;;;11.10;96.00;;;;;;5051770;28;20048;-76
2022/12/02 06:38:46;;;;;;;67.70;38.97;;;11.20;95.70;;;;;;5052637;28;20029;-78
2022/12/02 06:41:15;;;;;;;66.75;38.83;;;10.70;96.00;;;;;;5051061;28;20025;-77
2022/12/02 06:43:41;;;;;;;71.28;40.58;;;10.80;96.00;;;;;;5053868;28;20382;-75
2022/12/02 06:46:18;;;;;;;74.65;41.45;;;10.80;95.80;;;;;;5058964;28;20033;-78
2022/12/02 06:48:44;;;;;;;72.28;40.83;;;10.50;95.90;;;;;;5056587;28;20203;-78
2022/12/02 06:51:19;;;;;;;72.82;40.55;;;10.30;96.00;;;;;;5057229;28;20126;-79
2022/12/02 06:53:46;;;;;;;77.15;42.50;;;10.40;96.00;;;;;;5060913;28;20025;-78
2022/12/02 06:56:28;;;;;;;73.10;41.25;;;10.40;95.80;;;;;;5058755;28;20021;-76
2022/12/02 06:59:00;;;;;;;75.00;41.22;;;10.50;95.80;;;;;;5052084;28;20028;-76
2022/12/02 07:01:37;;;;;;;70.90;38.97;;;10.50;95.60;;;;;;5042511;28;20032;-80
2022/12/02 07:04:09;;;;;;;79.55;41.03;;;10.50;95.60;;;;;;5056919;28;20028;-82
2022/12/02 07:06:43;;;;;;;79.18;41.33;;;10.50;95.50;;;;;;5049084;28;20397;-80
2022/12/02 07:09:17;;;;;;;77.38;40.45;;;10.30;95.60;;;;;;5052361;28;20025;-80
2022/12/02 07:11:52;;;;;;;74.35;39.35;;;10.10;95.80;;;;;;5056364;28;20036;-79
2022/12/02 07:14:40;;;;;;;75.72;38.83;;;9.80;96.40;;;;;;5056564;28;20021;-81
2022/12/02 07:17:19;;;;;;;68.53;36.92;;;10.20;96.00;;;;;;5065446;28;20106;-79
2022/12/02 07:19:47;;;;;;;67.70;36.38;;;10.50;95.30;;;;;;5064432;28;20409;-82
2022/12/02 07:22:23;;;;;;;62.92;34.25;;;10.50;94.80;;;;;;5062789;28;20428;-79
2022/12/02 07:25:03;;;;;;;66.95;35.45;;;10.60;94.50;;;;;;5062930;28;20515;-81
2022/12/02 07:27:32;;;;;;;71.47;35.88;;;10.60;94.40;;;;;;5056028;28;20037;-77
2022/12/02 07:29:59;;;;;;;63.65;35.45;;;10.50;94.30;;;;;;5049663;28;20119;-82
2022/12/02 07:32:25;;;;;;;68.65;36.92;;;10.30;94.50;;;;;;5063356;28;20063;-81
2022/12/02 07:34:51;;;;;;;66.25;35.38;;;10.50;94.20;;;;;;5068899;28;20115;-81
2022/12/02 07:37:17;;;;;;;73.05;37.47;;;10.50;94.10;;;;;;5056999;28;20017;-82
2022/12/02 07:39:43;;;;;;;62.95;34.28;;;10.50;94.10;;;;;;5065238;28;20047;-82
2022/12/02 07:42:09;;;;;;;66.55;36.88;;;10.80;94.40;;;;;;5060325;28;20501;-77
2022/12/02 07:44:34;;;;;;;69.15;36.63;;;10.70;93.80;;;;;;5060548;28;20029;-76
2022/12/02 07:47:00;;;;;;;68.32;36.03;;;10.60;93.80;;;;;;5060170;28;20027;-77
2022/12/02 07:49:26;;;;;;;61.92;34.78;;;10.60;93.70;;;;;;5070271;28;20036;-76
2022/12/02 07:51:52;;;;;;;80.25;38.88;;;10.40;93.90;;;;;;5053976;28;20028;-80
2022/12/02 07:54:18;;;;;;;68.18;36.75;;;10.50;94.00;;;;;;5059366;28;20036;-76
2022/12/02 07:56:43;;;;;;;70.35;36.45;;;10.60;93.80;;;;;;5066859;28;20024;-78
2022/12/02 07:59:09;;;;;;;64.90;34.97;;;10.80;93.90;;;;;;5058524;28;20028;-78
2022/12/02 08:01:35;;;;;;;79.50;39.08;;;10.70;93.70;;;;;;5057770;28;20029;-77
2022/12/02 08:04:00;;;;;;;72.80;37.88;;;10.80;94.10;;;;;;5071583;28;20035;-77
2022/12/02 08:06:26;;;;;;;75.95;37.53;;;10.70;93.70;;;;;;5065806;28;20024;-81
2022/12/02 08:08:52;;;;;;;64.88;36.17;;;10.70;93.80;;;;;;5055032;28;20063;-80
2022/12/02 08:11:17;;;;;;;72.07;39.30;;;10.70;94.20;;;;;;5072341;28;20024;-80
2022/12/02 08:13:43;;;;;;;75.50;41.40;;;10.70;93.90;;;;;;5071256;28;20028;-81
2022/12/02 08:16:10;;;;;;;74.55;39.72;;;10.90;93.60;;;;;;5056509;28;20032;-81
2022/12/02 08:18:35;;;;;;;73.22;36.28;;;10.80;93.40;;;;;;5052884;28;20025;-81
2022/12/02 08:21:01;;;;;;;72.38;36.50;;;10.90;93.40;;;;;;5051464;28;20440;-80
2022/12/02 08:23:26;;;;;;;67.47;36.38;;;10.70;93.50;;;;;;5054323;28;20051;-80
2022/12/02 08:25:52;;;;;;;70.13;37.20;;;10.90;93.40;;;;;;5057131;28;20075;-81
2022/12/02 08:28:17;;;;;;;66.75;36.17;;;10.90;93.20;;;;;;5059794;28;20021;-80
2022/12/02 08:30:43;;;;;;;71.75;37.70;;;10.90;93.30;;;;;;5058992;28;20364;-81
2022/12/02 08:33:08;;;;;;;76.25;38.78;;;10.80;93.20;;;;;;5056192;28;20494;-79
2022/12/02 08:35:34;;;;;;;70.85;36.30;;;10.80;93.60;;;;;;5056007;28;20063;-78
2022/12/02 08:38:00;;;;;;;68.43;36.10;;;10.80;93.60;;;;;;5076410;28;20020;-77
2022/12/02 08:40:25;;;;;;;85.90;38.85;;;11.00;93.00;;;;;;5076679;28;20030;-77
2022/12/02 08:42:51;;;;;;;76.60;36.15;;;10.80;93.10;;;;;;5075194;28;20025;-81
2022/12/02 08:45:16;;;;;;;71.35;37.08;;;11.00;92.80;;;;;;5056556;28;20036;-77
2022/12/02 08:47:42;;;;;;;65.40;37.55;;;10.90;92.80;;;;;;5071124;28;20028;-78
2022/12/02 08:50:09;;;;;;;75.72;37.63;;;10.80;92.70;;;;;;5075630;28;20094;-79
2022/12/02 08:52:34;;;;;;;71.10;39.10;;;10.80;92.90;;;;;;5071125;28;20017;-80
2022/12/02 08:55:00;;;;;;;67.85;37.15;;;10.70;92.80;;;;;;5073931;28;20029;-79
2022/12/02 08:57:26;;;;;;;71.20;37.55;;;10.90;92.60;;;;;;5075519;28;20020;-79
2022/12/02 08:59:51;;;;;;;66.78;36.05;;;10.90;92.50;;;;;;5064030;28;20374;-78
2022/12/02 09:02:17;;;;;;;65.63;35.28;;;10.80;92.30;;;;;;5066282;28;20447;-79
2022/12/02 09:04:42;;;;;;;64.88;35.10;;;10.80;92.30;;;;;;5061851;28;20428;-78
2022/12/02 09:07:08;;;;;;;61.58;33.97;;;10.80;92.20;;;;;;5093704;28;20074;-79
2022/12/02 09:09:34;;;;;;;60.10;32.85;;;10.80;92.10;;;;;;5061456;28;20461;-78
2022/12/02 09:11:59;;;;;;;59.55;31.52;;;10.70;92.20;;;;;;5062000;28;20024;-77
2022/12/02 09:14:25;;;;;;;55.90;32.05;;;10.70;92.10;;;;;;5070258;28;20393;-77
2022/12/02 09:16:50;;;;;;;57.40;30.65;;;10.70;92.00;;;;;;5079753;28;20081;-78
2022/12/02 09:19:16;;;;;;;62.22;32.72;;;10.70;92.20;;;;;;5078815;28;20037;-77
2022/12/02 09:21:41;;;;;;;54.95;30.13;;;10.90;91.70;;;;;;5074936;28;20021;-78
2022/12/02 09:24:07;;;;;;;53.83;30.10;;;10.60;91.70;;;;;;5071890;28;20020;-79
2022/12/02 09:26:33;;;;;;;55.33;29.67;;;10.60;91.70;;;;;;5068480;28;20436;-79
2022/12/02 09:28:59;;;;;;;60.88;29.55;;;10.70;91.90;;;;;;5074815;28;20024;-80
2022/12/02 09:31:25;;;;;;;56.78;30.30;;;10.60;91.90;;;;;;5059972;28;20027;-80
2022/12/02 09:33:50;;;;;;;55.83;29.88;;;10.70;91.60;;;;;;5056817;28;20029;-78
2022/12/02 09:36:16;;;;;;;218.70;53.22;;;10.80;91.80;;;;;;5060053;28;20020;-80
2022/12/02 09:38:41;;;;;;;1162.60;221.10;;;10.70;91.90;;;;;;5065633;28;20029;-77
2022/12/02 09:41:07;;;;;;;82.40;34.47;;;10.80;91.50;;;;;;5069217;28;20013;-79
2022/12/02 09:43:33;;;;;;;69.43;30.55;;;10.70;91.60;;;;;;5074242;28;20068;-79
2022/12/02 09:45:59;;;;;;;62.08;30.30;;;10.80;91.60;;;;;;5063497;28;20020;-77
2022/12/02 09:48:26;;;;;;;62.45;30.63;;;10.70;91.50;;;;;;5065806;28;20020;-76
2022/12/02 09:50:53;;;;;;;97.18;35.15;;;10.60;91.40;;;;;;5074253;28;20024;-79
2022/12/02 09:53:20;;;;;;;61.75;31.60;;;10.60;91.80;;;;;;5056864;28;20025;-80
2022/12/02 09:55:45;;;;;;;63.03;31.65;;;10.60;91.60;;;;;;5065213;28;20115;-79
2022/12/02 09:58:16;;;;;;;85.72;33.75;;;10.60;91.40;;;;;;5069443;28;20139;-78
2022/12/02 10:00:43;;;;;;;96.88;35.65;;;10.60;91.80;;;;;;5066378;28;20115;-80
2022/12/02 10:03:12;;;;;;;85.20;35.67;;;10.60;91.80;;;;;;5056374;28;20083;-78
2022/12/02 10:05:37;;;;;;;103.43;35.30;;;10.70;91.60;;;;;;5067339;28;20033;-79
2022/12/02 10:08:06;;;;;;;109.65;37.17;;;10.80;91.60;;;;;;5059789;28;21559;-79
2022/12/02 10:10:41;;;;;;;109.07;36.42;;;10.80;91.70;;;;;;5059310;28;20040;-78
2022/12/02 10:13:11;;;;;;;132.82;38.03;;;11.00;91.50;;;;;;5055273;28;20126;-79
2022/12/02 10:15:36;;;;;;;102.82;33.72;;;11.20;91.50;;;;;;5066360;28;20154;-78
2022/12/02 10:18:15;;;;;;;90.15;33.33;;;11.20;91.10;;;;;;5058419;28;20104;-80
2022/12/02 10:20:41;;;;;;;57.05;27.25;;;11.00;91.00;;;;;;5055369;28;20470;-80
2022/12/02 10:23:15;;;;;;;45.15;25.40;;;11.10;90.40;;;;;;5072190;28;20035;-79
2022/12/02 10:25:46;;;;;;;74.20;28.55;;;10.60;91.10;;;;;;5054333;28;20053;-78
2022/12/02 10:28:39;;;;;;;57.63;28.20;;;10.30;91.90;;;;;;5066074;28;20016;-80
2022/12/02 10:31:13;;;;;;;66.43;29.23;;;10.50;91.50;;;;;;5056069;28;20123;-80
2022/12/02 10:33:58;;;;;;;61.72;27.15;;;10.60;91.40;;;;;;5055481;28;20036;-77
2022/12/02 10:36:40;;;;;;;65.93;27.85;;;10.70;91.30;;;;;;5063639;28;20082;-76
2022/12/02 10:39:21;;;;;;;63.30;28.10;;;10.80;91.20;;;;;;5073394;28;20111;-76
2022/12/02 10:41:48;;;;;;;54.17;26.30;;;10.80;91.30;;;;;;5055770;28;20482;-77
2022/12/02 10:44:19;;;;;;;51.65;25.83;;;10.90;91.00;;;;;;5062596;28;20078;-78
2022/12/02 10:46:45;;;;;;;50.65;29.27;;;11.00;91.00;;;;;;5063795;28;20115;-80
2022/12/02 10:49:27;;;;;;;46.38;24.92;;;10.90;90.90;;;;;;5056445;28;20025;-80
2022/12/02 10:51:54;;;;;;;47.13;25.58;;;11.00;90.80;;;;;;5070172;28;20024;-79
2022/12/02 11:43:44;;;;;;;35.97;19.63;;;11.10;90.30;;;;;;5027389;22;20129;-58
2022/12/02 11:46:12;;;;;;;32.90;20.15;;;11.10;90.30;;;;;;4988053;28;20433;-65
2022/12/02 11:49:17;;;;;;;34.67;19.95;;;11.10;90.30;;;;;;4989365;28;20026;-57
2022/12/02 11:51:43;;;;;;;35.95;22.05;;;11.10;90.40;;;;;;4989366;28;20110;-63
2022/12/02 11:54:14;;;;;;;31.30;20.15;;;11.10;90.10;;;;;;4989508;28;20109;-60
2022/12/02 11:56:41;;;;;;;35.75;21.77;;;11.10;90.50;;;;;;4988124;28;20122;-59
2022/12/02 11:59:26;;;;;;;33.40;20.25;;;11.10;90.30;;;;;;4988154;28;20059;-66
2022/12/02 12:02:24;;;;;;;33.55;20.35;;;10.90;90.50;;;;;;5005420;28;20058;-61
2022/12/02 12:05:03;;;;;;;30.38;20.08;;;10.80;90.40;;;;;;4990047;28;20026;-62
2022/12/02 12:07:46;;;;;;;37.03;23.20;;;10.60;90.60;;;;;;4980825;28;20026;-64
2022/12/02 12:10:27;;;;;;;34.70;22.65;;;10.50;90.70;;;;;;4988840;28;20095;-64
2022/12/02 12:13:11;;;;;;;35.28;20.90;;;10.60;90.70;;;;;;4983117;28;20038;-60
2022/12/02 12:15:50;;;;;;;35.78;21.33;;;10.80;90.60;;;;;;4987031;28;20431;-57
2022/12/02 12:18:39;;;;;;;32.70;22.98;;;10.70;90.70;;;;;;4989015;28;20031;-67
2022/12/02 12:21:05;;;;;;;35.63;21.35;;;10.60;90.70;;;;;;4990028;28;20030;-62
2022/12/02 12:23:34;;;;;;;33.03;22.42;;;10.60;90.80;;;;;;4995982;28;20049;-61
2022/12/02 12:26:00;;;;;;;34.80;21.80;;;10.50;90.90;;;;;;4989188;28;20030;-61
2022/12/02 12:28:28;;;;;;;31.38;19.98;;;10.50;90.90;;;;;;4982173;28;20022;-63
2022/12/02 12:30:54;;;;;;;31.65;20.10;;;10.60;90.90;;;;;;4990614;28;20038;-61
2022/12/02 12:33:20;;;;;;;32.45;20.35;;;10.70;90.80;;;;;;4978770;28;20027;-60
2022/12/02 12:35:46;;;;;;;31.23;20.55;;;10.50;91.00;;;;;;4991166;28;20030;-61
2022/12/02 12:38:12;;;;;;;32.00;21.65;;;10.40;91.20;;;;;;4988558;28;20022;-59
2022/12/02 12:40:37;;;;;;;30.13;20.55;;;10.20;91.90;;;;;;4974080;28;20044;-61
2022/12/02 12:43:03;;;;;;;34.65;22.58;;;10.40;91.60;;;;;;4984549;28;20535;-60
2022/12/02 12:45:28;;;;;;;34.03;22.17;;;10.40;91.20;;;;;;4973610;28;20027;-65
2022/12/02 12:47:54;;;;;;;37.00;22.95;;;10.40;91.30;;;;;;4981228;28;20053;-62
2022/12/02 12:50:19;;;;;;;31.27;21.10;;;10.30;91.40;;;;;;4987525;28;20046;-59
2022/12/02 12:52:45;;;;;;;33.63;20.95;;;10.50;91.30;;;;;;4989339;28;20054;-60
2022/12/02 12:55:10;;;;;;;32.38;20.67;;;10.70;91.50;;;;;;4973021;28;20042;-60
2022/12/02 12:57:36;;;;;;;33.33;21.92;;;10.70;91.30;;;;;;4991067;28;20536;-61
2022/12/02 13:00:04;;;;;;;33.38;21.77;;;10.60;91.40;;;;;;4988352;28;20375;-62
2022/12/02 13:02:29;;;;;;;32.88;20.52;;;10.40;91.50;;;;;;4983071;28;20394;-61
2022/12/02 13:04:55;;;;;;;29.63;20.13;;;10.30;91.70;;;;;;4999614;28;20489;-61
2022/12/02 13:07:20;;;;;;;33.15;20.23;;;10.60;91.50;;;;;;4985527;28;20432;-58
2022/12/02 13:09:46;;;;;;;29.25;19.52;;;10.60;91.40;;;;;;4989347;28;20042;-62
2022/12/02 13:12:11;;;;;;;27.73;18.88;;;10.80;91.30;;;;;;4991202;28;20029;-62
2022/12/02 13:14:37;;;;;;;30.13;18.90;;;11.00;91.10;;;;;;4987729;28;20411;-61
2022/12/02 13:17:03;;;;;;;33.10;19.80;;;11.20;90.70;;;;;;4987621;28;20032;-65
2022/12/02 13:19:28;;;;;;;30.10;19.52;;;11.00;90.70;;;;;;4983396;28;20161;-59
2022/12/02 13:21:54;;;;;;;28.88;20.50;;;11.00;90.80;;;;;;4995337;28;20046;-56
2022/12/02 13:24:19;;;;;;;30.10;19.13;;;10.80;90.90;;;;;;4994794;28;20018;-65
2022/12/02 13:26:45;;;;;;;37.47;22.98;;;10.80;91.10;;;;;;4989980;28;20491;-65
2022/12/02 13:29:10;;;;;;;31.60;19.77;;;10.70;91.20;;;;;;4987534;28;20467;-64